Time;durP1;ratioP1;P1;durP2;ratioP2;P2;SDS_P1;SDS_P2;PMS_P1;PMS_P2;Temp;Humidity;BMP_temperature;BMP_pressure;BME280_temperature;BME280_humidity;BME280_pressure;Samples;Min_cycle;Max_cycle;Signal;HPM_P1;HPM_P2
2023/02/15 00:01:13;;;;;;;19.50;14.50;;;;;;;;;;5036801;28;20458;-74
2023/02/15 00:03:39;;;;;;;20.70;14.80;;;;;;;;;;5039823;28;20477;-75
2023/02/15 00:06:05;;;;;;;29.00;17.43;;;;;;;;;;5036401;28;20488;-75
2023/02/15 00:08:31;;;;;;;20.03;14.73;;;;;;;;;;5041041;28;20449;-75
2023/02/15 00:11:11;;;;;;;18.03;13.97;;;;;;;;;;5018041;28;20480;-74
2023/02/15 00:13:40;;;;;;;26.80;15.87;;;;;;;;;;5031103;28;20529;-75
2023/02/15 00:16:08;;;;;;;22.93;14.90;;;;;;;;;;5021684;28;20462;-75
2023/02/15 00:18:34;;;;;;;30.00;14.80;;;;;;;;;;5037878;28;20485;-74
2023/02/15 00:21:03;;;;;;;17.27;11.60;;;;;;;;;;5035937;28;20492;-75
2023/02/15 00:23:29;;;;;;;20.93;12.80;;;;;;;;;;5041012;28;20449;-76
2023/02/15 00:26:09;;;;;;;20.43;13.00;;;;;;;;;;5037413;28;20461;-75
2023/02/15 00:28:35;;;;;;;16.95;12.20;;;;;;;;;;5039389;28;21069;-75
2023/02/15 00:31:08;;;;;;;23.08;13.90;;;;;;;;;;5037485;28;20569;-74
2023/02/15 00:33:34;;;;;;;20.23;14.60;;;;;;;;;;5040150;28;20192;-74
2023/02/15 00:36:01;;;;;;;24.50;15.43;;;;;;;;;;5037375;28;20462;-75
2023/02/15 00:38:27;;;;;;;17.90;11.50;;;;;;;;;;5039749;28;20450;-74
2023/02/15 00:40:58;;;;;;;19.75;14.13;;;;;;;;;;5037077;28;20446;-74
2023/02/15 00:43:24;;;;;;;20.17;13.73;;;;;;;;;;5036242;28;20208;-75
2023/02/15 00:45:50;;;;;;;18.70;14.10;;;;;;;;;;5033119;28;20458;-75
2023/02/15 00:48:16;;;;;;;23.17;12.23;;;;;;;;;;5038307;28;20465;-75
2023/02/15 00:50:45;;;;;;;22.13;13.30;;;;;;;;;;5033937;28;20951;-76
2023/02/15 00:53:11;;;;;;;24.52;13.85;;;;;;;;;;5038844;28;20213;-75
2023/02/15 00:55:37;;;;;;;22.90;13.85;;;;;;;;;;5036370;28;20205;-75
2023/02/15 00:58:03;;;;;;;23.53;14.47;;;;;;;;;;5038672;28;20175;-75
2023/02/15 01:00:29;;;;;;;17.20;13.30;;;;;;;;;;5036170;28;20989;-75
2023/02/15 01:02:55;;;;;;;19.30;12.87;;;;;;;;;;5036322;28;20720;-74
2023/02/15 01:05:21;;;;;;;24.07;14.90;;;;;;;;;;5036526;28;20583;-76
2023/02/15 01:07:47;;;;;;;23.87;14.13;;;;;;;;;;5037097;28;20410;-75
2023/02/15 01:10:13;;;;;;;22.20;13.37;;;;;;;;;;5032317;28;20435;-75
2023/02/15 01:12:39;;;;;;;29.13;15.80;;;;;;;;;;5036123;28;20452;-74
2023/02/15 01:15:05;;;;;;;25.13;15.17;;;;;;;;;;5036305;28;20442;-74
2023/02/15 01:17:31;;;;;;;23.10;15.40;;;;;;;;;;5038733;28;20433;-75
2023/02/15 01:19:57;;;;;;;28.45;15.73;;;;;;;;;;5034429;28;20884;-75
2023/02/15 01:22:23;;;;;;;21.90;14.70;;;;;;;;;;5034418;28;20765;-75
2023/02/15 01:24:50;;;;;;;20.10;14.80;;;;;;;;;;5035890;28;20464;-75
2023/02/15 01:27:16;;;;;;;18.30;13.02;;;;;;;;;;5039267;28;20779;-75
2023/02/15 01:29:42;;;;;;;23.93;14.23;;;;;;;;;;5037685;28;20175;-76
2023/02/15 01:32:08;;;;;;;25.70;14.30;;;;;;;;;;5040144;28;20400;-75
2023/02/15 01:34:34;;;;;;;22.27;12.15;;;;;;;;;;5039075;28;20450;-74
2023/02/15 01:37:00;;;;;;;20.03;14.13;;;;;;;;;;5038402;28;20661;-75
2023/02/15 01:39:26;;;;;;;21.87;14.20;;;;;;;;;;5040506;28;20441;-75
2023/02/15 01:41:52;;;;;;;18.87;13.90;;;;;;;;;;5034794;28;20420;-77
2023/02/15 01:44:37;;;;;;;21.10;13.70;;;;;;;;;;5040835;28;20439;-75
2023/02/15 01:47:03;;;;;;;20.90;11.98;;;;;;;;;;5035745;28;21198;-75
2023/02/15 01:49:29;;;;;;;22.33;14.40;;;;;;;;;;5040349;28;20318;-76
2023/02/15 01:51:55;;;;;;;22.27;14.53;;;;;;;;;;5038563;28;20470;-76
2023/02/15 01:54:24;;;;;;;20.80;14.53;;;;;;;;;;5042948;28;20449;-75
2023/02/15 01:56:51;;;;;;;25.25;16.73;;;;;;;;;;5036811;28;20961;-75
2023/02/15 01:59:19;;;;;;;23.80;14.13;;;;;;;;;;5039345;28;20707;-75
2023/02/15 02:01:45;;;;;;;24.13;15.87;;;;;;;;;;5037278;28;20510;-73
2023/02/15 02:04:16;;;;;;;19.92;15.35;;;;;;;;;;5040471;28;20444;-75
2023/02/15 02:06:44;;;;;;;23.05;13.52;;;;;;;;;;5031396;28;20202;-75
2023/02/15 02:09:10;;;;;;;24.05;15.30;;;;;;;;;;5040654;28;20190;-74
2023/02/15 02:11:36;;;;;;;30.13;16.33;;;;;;;;;;5034073;28;20229;-76
2023/02/15 02:14:02;;;;;;;24.27;14.88;;;;;;;;;;5037283;28;20417;-76
2023/02/15 02:16:28;;;;;;;23.37;15.90;;;;;;;;;;5011225;28;20192;-74
2023/02/15 02:18:57;;;;;;;24.60;14.20;;;;;;;;;;5037207;28;21194;-74
2023/02/15 02:21:41;;;;;;;20.80;13.17;;;;;;;;;;5031224;28;20450;-74
2023/02/15 02:24:26;;;;;;;25.27;13.97;;;;;;;;;;5038736;28;21027;-74
2023/02/15 02:27:00;;;;;;;23.25;13.73;;;;;;;;;;5034564;28;20546;-76
2023/02/15 02:29:38;;;;;;;25.67;15.93;;;;;;;;;;5036435;28;20669;-74
2023/02/15 02:32:28;;;;;;;29.90;15.10;;;;;;;;;;5036813;28;20184;-74
2023/02/15 02:34:54;;;;;;;23.47;15.50;;;;;;;;;;5030776;28;21147;-74
2023/02/15 02:37:27;;;;;;;21.87;13.50;;;;;;;;;;5033414;28;20413;-75
2023/02/15 02:39:55;;;;;;;22.47;14.67;;;;;;;;;;5036317;28;20520;-74
2023/02/15 02:42:28;;;;;;;24.10;15.10;;;;;;;;;;5034565;28;20937;-74
2023/02/15 02:45:01;;;;;;;19.83;15.30;;;;;;;;;;5034007;28;20215;-74
2023/02/15 02:47:30;;;;;;;23.03;15.60;;;;;;;;;;5033661;28;20789;-74
2023/02/15 02:50:05;;;;;;;20.95;15.25;;;;;;;;;;5016440;28;20399;-73
2023/02/15 02:52:40;;;;;;;21.77;14.07;;;;;;;;;;5041283;28;20201;-74
2023/02/15 02:55:09;;;;;;;22.00;13.87;;;;;;;;;;5038286;28;20193;-73
2023/02/15 02:57:37;;;;;;;25.00;17.10;;;;;;;;;;5038098;28;20431;-75
2023/02/15 03:00:05;;;;;;;26.07;16.77;;;;;;;;;;5038974;28;20437;-75
2023/02/15 03:02:36;;;;;;;28.02;16.45;;;;;;;;;;5040732;28;20452;-75
2023/02/15 03:05:04;;;;;;;25.10;15.75;;;;;;;;;;5038503;28;20215;-75
2023/02/15 03:07:31;;;;;;;26.73;15.30;;;;;;;;;;5038577;28;20187;-75
2023/02/15 03:10:01;;;;;;;24.23;14.77;;;;;;;;;;5034016;28;21477;-75
2023/02/15 03:12:32;;;;;;;28.65;16.23;;;;;;;;;;5043679;28;20444;-76
2023/02/15 03:15:07;;;;;;;23.70;15.77;;;;;;;;;;5026026;28;20203;-76
2023/02/15 03:17:34;;;;;;;26.48;16.17;;;;;;;;;;5022051;28;20559;-75
2023/02/15 03:20:02;;;;;;;29.80;16.92;;;;;;;;;;5043902;28;20183;-75
2023/02/15 03:22:31;;;;;;;31.20;17.83;;;;;;;;;;5042770;28;20724;-75
2023/02/15 03:25:00;;;;;;;27.20;17.48;;;;;;;;;;5043161;28;21235;-76
2023/02/15 03:27:32;;;;;;;22.67;14.50;;;;;;;;;;5042684;28;20194;-76
2023/02/15 03:30:00;;;;;;;23.87;15.87;;;;;;;;;;5043236;28;20220;-76
2023/02/15 03:32:28;;;;;;;21.60;14.07;;;;;;;;;;5041781;28;20452;-75
2023/02/15 03:34:55;;;;;;;30.00;17.05;;;;;;;;;;5042966;28;20456;-75
2023/02/15 03:37:23;;;;;;;28.55;16.05;;;;;;;;;;5045661;28;20186;-75
2023/02/15 03:43:01;;;;;;;29.63;15.45;;;;;;;;;;5043859;28;20569;-75
2023/02/15 03:45:30;;;;;;;25.75;16.02;;;;;;;;;;5042980;28;20281;-75
2023/02/15 03:47:57;;;;;;;23.90;15.77;;;;;;;;;;5044015;28;20194;-75
2023/02/15 03:53:22;;;;;;;29.90;16.40;;;;;;;;;;5043576;28;20207;-75
2023/02/15 03:55:49;;;;;;;29.42;16.88;;;;;;;;;;5042217;28;20447;-74
2023/02/15 04:03:54;;;;;;;30.40;16.80;;;;;;;;;;5045282;28;20709;-74
2023/02/15 04:06:20;;;;;;;31.40;16.45;;;;;;;;;;5044782;28;20576;-75
2023/02/15 04:11:31;;;;;;;28.55;16.80;;;;;;;;;;5043084;28;20476;-76
2023/02/15 04:13:57;;;;;;;26.00;16.03;;;;;;;;;;5043182;28;20200;-75
2023/02/15 04:16:26;;;;;;;24.90;16.00;;;;;;;;;;5043060;28;20461;-76
2023/02/15 04:27:06;;;;;;;25.60;16.30;;;;;;;;;;5044289;28;20183;-74
2023/02/15 04:29:32;;;;;;;26.52;18.23;;;;;;;;;;5042134;28;20536;-75
2023/02/15 04:31:59;;;;;;;32.47;16.50;;;;;;;;;;5041200;28;20279;-75
2023/02/15 04:34:25;;;;;;;27.67;16.42;;;;;;;;;;5040703;28;20211;-74
2023/02/15 04:36:51;;;;;;;30.38;17.40;;;;;;;;;;5041555;28;20282;-74
2023/02/15 04:39:18;;;;;;;30.23;18.73;;;;;;;;;;5043243;28;20247;-76
2023/02/15 04:41:44;;;;;;;24.15;13.43;;;;;;;;;;5041524;28;20654;-75
2023/02/15 04:44:10;;;;;;;21.00;16.10;;;;;;;;;;5042526;28;20488;-75
2023/02/15 04:46:36;;;;;;;28.80;16.80;;;;;;;;;;5042918;28;20438;-75
2023/02/15 04:49:02;;;;;;;28.17;17.20;;;;;;;;;;5024500;28;20510;-75
2023/02/15 04:51:29;;;;;;;31.33;18.27;;;;;;;;;;5041867;28;20499;-76
2023/02/15 04:53:56;;;;;;;23.50;15.10;;;;;;;;;;5042028;28;20448;-75
2023/02/15 04:56:22;;;;;;;25.80;15.70;;;;;;;;;;5042883;28;20458;-75
2023/02/15 04:58:48;;;;;;;24.67;16.03;;;;;;;;;;5043263;28;20438;-76
2023/02/15 05:01:14;;;;;;;27.33;17.50;;;;;;;;;;5041173;28;20479;-76
2023/02/15 05:03:40;;;;;;;33.80;16.70;;;;;;;;;;5043610;28;21437;-75
2023/02/15 05:06:06;;;;;;;33.17;17.50;;;;;;;;;;5042317;28;20595;-75
2023/02/15 05:08:32;;;;;;;26.13;17.00;;;;;;;;;;5043625;28;20430;-76
2023/02/15 05:10:58;;;;;;;21.45;14.38;;;;;;;;;;5036057;28;21838;-74
2023/02/15 05:13:25;;;;;;;26.35;16.02;;;;;;;;;;5035530;28;20585;-74
2023/02/15 05:15:51;;;;;;;30.70;17.90;;;;;;;;;;5035703;28;20195;-77
2023/02/15 05:18:18;;;;;;;27.33;18.53;;;;;;;;;;5034932;28;20368;-75
2023/02/15 05:20:44;;;;;;;31.00;16.95;;;;;;;;;;5038553;28;20889;-75
2023/02/15 05:23:13;;;;;;;31.98;15.50;;;;;;;;;;5042877;28;20659;-76
2023/02/15 05:28:26;;;;;;;34.72;16.27;;;;;;;;;;5023104;28;20291;-74
2023/02/15 05:31:02;;;;;;;29.05;16.48;;;;;;;;;;5029085;28;20750;-74
2023/02/15 05:33:28;;;;;;;25.47;16.87;;;;;;;;;;5037702;28;20246;-75
2023/02/15 05:35:54;;;;;;;30.77;17.98;;;;;;;;;;5043757;28;20429;-75
2023/02/15 05:38:20;;;;;;;34.55;18.75;;;;;;;;;;5040811;28;20211;-74
2023/02/15 05:40:46;;;;;;;36.50;18.60;;;;;;;;;;5040478;28;20196;-76
2023/02/15 05:43:12;;;;;;;34.83;17.73;;;;;;;;;;5040521;28;20449;-76
2023/02/15 05:45:38;;;;;;;27.30;18.08;;;;;;;;;;5048833;28;20454;-75
2023/02/15 05:48:04;;;;;;;27.40;16.50;;;;;;;;;;5053140;28;20263;-75
2023/02/15 05:50:30;;;;;;;34.13;18.67;;;;;;;;;;5050703;28;20433;-75
2023/02/15 05:52:56;;;;;;;32.53;19.60;;;;;;;;;;5052557;28;20855;-75
2023/02/15 05:55:22;;;;;;;29.05;18.20;;;;;;;;;;5043889;28;20430;-75
2023/02/15 05:57:49;;;;;;;33.03;17.83;;;;;;;;;;5050374;28;20200;-75
2023/02/15 06:00:15;;;;;;;35.53;19.67;;;;;;;;;;5047772;28;20434;-75
2023/02/15 06:02:41;;;;;;;39.33;18.20;;;;;;;;;;5028685;28;20212;-75
2023/02/15 06:05:07;;;;;;;28.00;17.43;;;;;;;;;;5042928;28;20229;-74
2023/02/15 06:07:33;;;;;;;32.97;17.73;;;;;;;;;;5045587;28;20423;-75
2023/02/15 06:09:59;;;;;;;33.23;17.87;;;;;;;;;;5046789;28;20757;-76
2023/02/15 06:12:25;;;;;;;43.30;22.50;;;;;;;;;;5053536;28;20420;-75
2023/02/15 06:14:51;;;;;;;33.00;19.60;;;;;;;;;;5047312;28;20393;-75
2023/02/15 06:17:17;;;;;;;31.77;18.60;;;;;;;;;;5042780;28;20403;-75
2023/02/15 06:19:44;;;;;;;30.67;17.70;;;;;;;;;;5044234;28;20178;-75
2023/02/15 06:22:10;;;;;;;31.85;18.20;;;;;;;;;;5047080;28;20592;-74
2023/02/15 06:24:36;;;;;;;30.73;17.83;;;;;;;;;;5044017;28;20267;-77
2023/02/15 06:27:02;;;;;;;28.50;17.20;;;;;;;;;;5044840;28;20418;-75
2023/02/15 06:29:28;;;;;;;33.17;16.43;;;;;;;;;;5044099;28;20608;-75
2023/02/15 06:31:54;;;;;;;26.63;14.47;;;;;;;;;;5030413;28;20485;-75
2023/02/15 06:34:19;;;;;;;29.57;16.10;;;;;;;;;;5042731;28;20920;-74
2023/02/15 06:36:46;;;;;;;26.90;17.60;;;;;;;;;;5040479;28;20510;-75
2023/02/15 06:39:12;;;;;;;25.50;15.23;;;;;;;;;;5049598;28;20400;-75
2023/02/15 06:41:38;;;;;;;28.27;16.73;;;;;;;;;;5047692;28;20473;-74
2023/02/15 06:44:04;;;;;;;25.83;16.60;;;;;;;;;;5042713;28;20408;-77
2023/02/15 06:46:30;;;;;;;28.20;16.93;;;;;;;;;;5050838;28;20428;-75
2023/02/15 06:48:56;;;;;;;19.20;13.67;;;;;;;;;;5047219;28;20441;-75
2023/02/15 06:51:23;;;;;;;24.97;15.10;;;;;;;;;;5045544;28;20540;-75
2023/02/15 06:53:49;;;;;;;23.53;15.50;;;;;;;;;;5044140;28;20542;-76
2023/02/15 06:56:15;;;;;;;25.63;16.43;;;;;;;;;;5040023;28;20437;-75
2023/02/15 06:58:41;;;;;;;26.83;16.90;;;;;;;;;;5045144;28;20800;-76
2023/02/15 07:01:07;;;;;;;26.87;17.00;;;;;;;;;;5046454;28;20416;-77
2023/02/15 07:03:34;;;;;;;24.73;14.82;;;;;;;;;;5040668;28;20432;-76
2023/02/15 07:06:01;;;;;;;18.77;13.57;;;;;;;;;;5047709;28;20247;-76
2023/02/15 07:08:28;;;;;;;23.63;15.25;;;;;;;;;;5044207;28;20231;-75
2023/02/15 07:12:40;;;;;;;30.63;17.33;;;;;;;;;;5027754;28;20310;-75
2023/02/15 07:13:42;;;;;;;28.27;17.57;;;;;;;;;;5029034;28;20557;-74
2023/02/15 07:16:08;;;;;;;26.33;16.52;;;;;;;;;;5026198;28;20878;-75
2023/02/15 07:18:34;;;;;;;30.50;19.00;;;;;;;;;;5041644;28;20232;-75
2023/02/15 07:21:00;;;;;;;23.53;17.20;;;;;;;;;;5038384;28;20231;-75
2023/02/15 07:23:26;;;;;;;24.70;16.13;;;;;;;;;;5012143;28;20440;-74
2023/02/15 07:26:02;;;;;;;20.63;14.20;;;;;;;;;;5034676;28;20475;-75
2023/02/15 07:28:28;;;;;;;23.70;14.35;;;;;;;;;;5041091;28;20620;-75
2023/02/15 07:30:54;;;;;;;27.88;16.02;;;;;;;;;;5042948;28;20201;-74
2023/02/15 07:33:23;;;;;;;25.73;16.90;;;;;;;;;;5039421;28;20202;-75
2023/02/15 07:35:50;;;;;;;28.17;17.93;;;;;;;;;;5009820;28;20201;-75
2023/02/15 07:38:16;;;;;;;26.80;17.75;;;;;;;;;;5025075;28;20443;-76
2023/02/15 07:40:43;;;;;;;22.30;16.13;;;;;;;;;;5026526;28;20208;-75
2023/02/15 07:43:09;;;;;;;21.73;15.02;;;;;;;;;;5047001;28;20206;-75
2023/02/15 07:45:35;;;;;;;24.93;15.80;;;;;;;;;;5032070;28;20222;-75
2023/02/15 07:48:02;;;;;;;22.13;15.73;;;;;;;;;;5013660;28;20816;-75
2023/02/15 07:50:28;;;;;;;26.70;17.37;;;;;;;;;;5017147;28;20424;-75
2023/02/15 07:52:54;;;;;;;24.63;15.67;;;;;;;;;;5036815;28;21175;-75
2023/02/15 07:55:20;;;;;;;32.93;18.60;;;;;;;;;;5039950;28;20410;-74
2023/02/15 07:57:46;;;;;;;30.25;20.30;;;;;;;;;;5045686;28;20781;-74
2023/02/15 08:00:24;;;;;;;30.13;20.20;;;;;;;;;;5041672;28;20366;-74
2023/02/15 08:05:59;;;;;;;33.60;16.90;;;;;;;;;;4967298;28;20205;-75
2023/02/15 08:08:29;;;;;;;24.77;17.93;;;;;;;;;;5028354;28;20536;-76
2023/02/15 08:11:28;;;;;;;29.10;18.87;;;;;;;;;;5028486;28;20452;-75
2023/02/15 08:13:55;;;;;;;31.63;19.07;;;;;;;;;;5031452;28;20418;-76
2023/02/15 08:16:24;;;;;;;29.42;17.75;;;;;;;;;;5017323;28;20489;-74
2023/02/15 08:18:52;;;;;;;23.60;16.70;;;;;;;;;;5049258;28;20227;-75
2023/02/15 08:21:22;;;;;;;23.63;16.50;;;;;;;;;;5043829;28;20450;-76
2023/02/15 08:23:57;;;;;;;25.87;16.83;;;;;;;;;;5046279;28;20998;-74
2023/02/15 08:26:24;;;;;;;35.43;19.80;;;;;;;;;;5039601;28;20451;-75
2023/02/15 08:28:51;;;;;;;24.93;16.90;;;;;;;;;;5044142;28;20508;-76
2023/02/15 08:31:18;;;;;;;28.30;17.33;;;;;;;;;;5052328;28;20528;-75
2023/02/15 08:33:44;;;;;;;31.00;16.97;;;;;;;;;;5052683;28;20526;-75
2023/02/15 08:36:12;;;;;;;28.25;18.33;;;;;;;;;;5039841;28;20434;-75
2023/02/15 08:38:39;;;;;;;25.27;17.27;;;;;;;;;;5049921;28;20287;-75
2023/02/15 08:41:24;;;;;;;26.53;17.60;;;;;;;;;;5050110;28;20406;-75
2023/02/15 08:43:53;;;;;;;38.60;17.30;;;;;;;;;;5050499;28;20546;-76
2023/02/15 08:46:19;;;;;;;28.10;18.05;;;;;;;;;;5043535;28;20972;-74
2023/02/15 08:48:45;;;;;;;31.77;20.20;;;;;;;;;;5043818;28;20737;-76
2023/02/15 08:51:13;;;;;;;30.93;18.27;;;;;;;;;;5045575;28;20513;-74
2023/02/15 08:53:40;;;;;;;34.90;20.53;;;;;;;;;;5046393;28;20510;-74
2023/02/15 08:56:06;;;;;;;32.93;19.60;;;;;;;;;;5040200;28;20521;-74
2023/02/15 08:58:33;;;;;;;30.70;16.40;;;;;;;;;;5046313;28;20426;-76
2023/02/15 09:00:59;;;;;;;35.33;22.47;;;;;;;;;;5044468;28;20195;-76
2023/02/15 09:03:25;;;;;;;35.25;20.23;;;;;;;;;;5048510;28;20512;-76
2023/02/15 09:05:51;;;;;;;30.70;19.00;;;;;;;;;;5044839;28;20207;-76
2023/02/15 09:08:17;;;;;;;30.23;18.07;;;;;;;;;;5053247;28;20782;-75
2023/02/15 09:10:43;;;;;;;33.23;21.93;;;;;;;;;;5027225;28;20575;-75
2023/02/15 09:13:09;;;;;;;29.97;20.57;;;;;;;;;;5056268;28;20515;-75
2023/02/15 09:15:59;;;;;;;33.60;20.23;;;;;;;;;;5044252;28;20452;-76
2023/02/15 09:18:25;;;;;;;27.47;18.00;;;;;;;;;;5057108;28;21050;-76
2023/02/15 09:20:51;;;;;;;26.87;18.30;;;;;;;;;;5053336;28;20450;-75
2023/02/15 09:23:17;;;;;;;20.07;16.90;;;;;;;;;;5049501;28;20986;-75
2023/02/15 09:25:43;;;;;;;21.80;15.47;;;;;;;;;;5054007;28;20568;-77
2023/02/15 09:28:09;;;;;;;22.80;15.60;;;;;;;;;;5060294;28;20433;-76
2023/02/15 09:30:35;;;;;;;22.10;16.40;;;;;;;;;;5052349;28;20433;-76
2023/02/15 09:33:01;;;;;;;19.63;16.20;;;;;;;;;;5036336;28;20463;-76
2023/02/15 09:35:27;;;;;;;27.33;16.17;;;;;;;;;;5030346;28;20440;-74
2023/02/15 09:37:56;;;;;;;18.80;15.70;;;;;;;;;;5031002;28;20433;-73
2023/02/15 09:40:25;;;;;;;21.90;16.43;;;;;;;;;;5050049;28;20436;-74
2023/02/15 09:42:55;;;;;;;23.40;18.37;;;;;;;;;;5046538;28;20491;-75
2023/02/15 09:45:24;;;;;;;24.80;18.30;;;;;;;;;;5028926;28;20478;-74
2023/02/15 09:47:50;;;;;;;19.30;16.47;;;;;;;;;;5046761;28;20750;-75
2023/02/15 09:50:29;;;;;;;25.50;17.67;;;;;;;;;;5044303;28;20483;-76
2023/02/15 09:53:13;;;;;;;19.87;16.60;;;;;;;;;;5043394;28;20503;-76
2023/02/15 09:55:57;;;;;;;29.83;17.10;;;;;;;;;;5032000;28;20448;-75
2023/02/15 09:58:32;;;;;;;26.17;17.47;;;;;;;;;;5046361;28;20761;-74
2023/02/15 10:01:01;;;;;;;17.23;15.47;;;;;;;;;;5045964;28;20953;-75
2023/02/15 10:03:45;;;;;;;24.67;16.03;;;;;;;;;;5036256;28;20454;-76
2023/02/15 10:06:20;;;;;;;20.50;16.60;;;;;;;;;;5044175;28;20685;-76
2023/02/15 10:09:05;;;;;;;19.77;15.97;;;;;;;;;;5032172;28;20425;-75
2023/02/15 10:11:39;;;;;;;23.07;15.50;;;;;;;;;;5041827;28;20582;-75
2023/02/15 10:14:08;;;;;;;16.77;14.87;;;;;;;;;;5046871;28;20440;-75
2023/02/15 10:16:40;;;;;;;22.33;14.10;;;;;;;;;;5039891;28;20438;-75
2023/02/15 10:19:29;;;;;;;24.43;14.03;;;;;;;;;;5044955;28;21138;-75
2023/02/15 10:22:14;;;;;;;20.20;15.30;;;;;;;;;;5039867;28;20437;-74
2023/02/15 10:25:03;;;;;;;21.80;14.03;;;;;;;;;;5054064;28;20551;-73
2023/02/15 10:27:33;;;;;;;17.13;13.93;;;;;;;;;;5044115;28;20511;-74
2023/02/15 10:30:08;;;;;;;16.93;15.20;;;;;;;;;;5054675;28;20440;-75
2023/02/15 10:32:41;;;;;;;15.13;12.67;;;;;;;;;;5031268;28;20417;-75
2023/02/15 10:35:16;;;;;;;16.47;13.60;;;;;;;;;;5036831;28;20768;-73
2023/02/15 10:37:45;;;;;;;17.60;13.80;;;;;;;;;;5035457;28;20999;-74
2023/02/15 10:40:26;;;;;;;17.20;12.60;;;;;;;;;;5035393;28;20474;-75
2023/02/15 10:42:52;;;;;;;17.33;13.13;;;;;;;;;;5033209;28;20936;-75
2023/02/15 10:45:18;;;;;;;19.80;13.90;;;;;;;;;;5040860;28;20469;-74
2023/02/15 10:47:56;;;;;;;18.83;12.70;;;;;;;;;;5038980;28;20456;-75
2023/02/15 10:50:35;;;;;;;22.20;13.67;;;;;;;;;;5038761;28;20970;-74
2023/02/15 10:53:07;;;;;;;19.13;14.03;;;;;;;;;;5048268;28;20433;-74
2023/02/15 10:55:51;;;;;;;13.70;12.30;;;;;;;;;;5048542;28;20890;-75
2023/02/15 10:58:25;;;;;;;14.50;12.77;;;;;;;;;;5042954;28;20955;-74
2023/02/15 11:00:51;;;;;;;17.53;13.10;;;;;;;;;;5044696;28;20943;-75
2023/02/15 11:03:35;;;;;;;19.00;13.63;;;;;;;;;;5043838;28;20429;-75
2023/02/15 11:06:06;;;;;;;19.73;12.30;;;;;;;;;;5039746;28;20468;-75
2023/02/15 11:08:35;;;;;;;18.83;13.97;;;;;;;;;;5042654;28;20461;-75
2023/02/15 11:11:05;;;;;;;15.73;12.80;;;;;;;;;;5029152;28;20465;-73
2023/02/15 11:13:33;;;;;;;15.37;13.80;;;;;;;;;;5030004;28;20437;-75
2023/02/15 11:16:20;;;;;;;16.20;12.60;;;;;;;;;;5045406;28;20434;-74
2023/02/15 11:18:51;;;;;;;13.83;12.50;;;;;;;;;;5036328;28;20452;-74
2023/02/15 11:21:21;;;;;;;13.87;12.50;;;;;;;;;;5038551;28;20433;-75
2023/02/15 11:23:48;;;;;;;16.67;12.70;;;;;;;;;;5046920;28;20932;-75
2023/02/15 11:26:29;;;;;;;15.37;13.87;;;;;;;;;;5037670;28;20967;-75
2023/02/15 11:29:34;;;;;;;14.13;12.57;;;;;;;;;;5033411;28;20448;-74
2023/02/15 11:32:12;;;;;;;16.77;13.30;;;;;;;;;;4922298;29;20443;-76
2023/02/15 11:34:51;;;;;;;13.97;11.67;;;;;;;;;;4925996;29;20488;-75
2023/02/15 11:37:18;;;;;;;12.77;11.47;;;;;;;;;;5004482;28;20788;-75
2023/02/15 11:39:51;;;;;;;13.43;12.10;;;;;;;;;;5052060;28;20683;-75
2023/02/15 11:42:19;;;;;;;13.40;11.50;;;;;;;;;;5028725;28;20431;-76
2023/02/15 11:44:54;;;;;;;14.37;12.83;;;;;;;;;;5047495;28;20461;-74
2023/02/15 11:47:20;;;;;;;16.03;12.37;;;;;;;;;;5041830;28;20757;-76
2023/02/15 11:49:47;;;;;;;14.63;12.90;;;;;;;;;;5048743;28;20892;-74
2023/02/15 11:52:16;;;;;;;16.80;13.27;;;;;;;;;;5049779;28;20465;-74
2023/02/15 11:54:44;;;;;;;16.00;12.07;;;;;;;;;;5047591;28;20525;-75
2023/02/15 11:57:13;;;;;;;15.13;12.53;;;;;;;;;;5028324;28;20850;-76
2023/02/15 11:59:41;;;;;;;14.03;12.53;;;;;;;;;;5047439;28;20511;-75
2023/02/15 12:02:20;;;;;;;13.80;12.27;;;;;;;;;;5055020;28;20437;-75
2023/02/15 12:04:58;;;;;;;18.57;12.67;;;;;;;;;;5050551;28;20457;-75
2023/02/15 12:07:27;;;;;;;13.37;11.97;;;;;;;;;;5046238;28;20506;-76
2023/02/15 12:09:57;;;;;;;12.73;11.27;;;;;;;;;;5048078;28;20452;-76
2023/02/15 12:12:28;;;;;;;13.80;12.23;;;;;;;;;;5044603;28;20905;-75
2023/02/15 12:15:12;;;;;;;16.13;12.47;;;;;;;;;;5044096;28;20433;-74
2023/02/15 12:17:42;;;;;;;13.17;10.93;;;;;;;;;;5045762;28;20512;-75
2023/02/15 12:20:14;;;;;;;17.00;12.10;;;;;;;;;;5048595;28;20540;-75
2023/02/15 12:22:46;;;;;;;20.10;12.57;;;;;;;;;;5030353;28;21137;-75
2023/02/15 12:25:31;;;;;;;13.07;11.30;;;;;;;;;;5027771;28;20473;-75
2023/02/15 12:27:57;;;;;;;14.73;11.97;;;;;;;;;;5047093;28;20502;-74
2023/02/15 12:30:28;;;;;;;16.33;12.00;;;;;;;;;;5045007;28;20512;-75
2023/02/15 12:33:00;;;;;;;15.77;12.40;;;;;;;;;;5049780;28;20425;-75
2023/02/15 12:35:30;;;;;;;18.83;12.47;;;;;;;;;;5024529;28;20434;-76
2023/02/15 12:38:06;;;;;;;15.63;11.70;;;;;;;;;;5018075;28;20847;-76
2023/02/15 12:40:33;;;;;;;11.80;10.73;;;;;;;;;;5027200;28;21082;-76
2023/02/15 12:43:00;;;;;;;11.63;10.07;;;;;;;;;;5034433;28;20444;-75
2023/02/15 12:45:33;;;;;;;15.63;10.80;;;;;;;;;;5040454;28;21007;-76
2023/02/15 12:48:19;;;;;;;13.47;12.07;;;;;;;;;;5048332;28;20430;-74
2023/02/15 12:50:49;;;;;;;13.20;11.73;;;;;;;;;;5031804;28;20446;-76
2023/02/15 12:53:14;;;;;;;13.43;12.10;;;;;;;;;;5027440;28;20433;-75
2023/02/15 12:55:50;;;;;;;18.00;12.73;;;;;;;;;;5043664;28;20446;-76
2023/02/15 12:58:17;;;;;;;11.50;10.20;;;;;;;;;;5023125;28;20487;-76
2023/02/15 13:00:44;;;;;;;14.30;11.07;;;;;;;;;;5037783;28;20551;-76
2023/02/15 13:03:21;;;;;;;15.37;13.00;;;;;;;;;;5046378;28;20491;-76
2023/02/15 13:05:50;;;;;;;17.53;13.33;;;;;;;;;;5042029;28;20775;-76
2023/02/15 13:08:28;;;;;;;13.60;12.20;;;;;;;;;;5045842;28;20852;-77
2023/02/15 13:10:54;;;;;;;14.30;12.10;;;;;;;;;;5015498;28;20466;-75
2023/02/15 13:13:22;;;;;;;12.40;11.10;;;;;;;;;;5048811;28;20426;-75
2023/02/15 13:15:50;;;;;;;17.23;12.07;;;;;;;;;;5045289;28;20452;-76
2023/02/15 13:18:25;;;;;;;13.40;12.07;;;;;;;;;;5048664;28;20433;-76
2023/02/15 13:20:52;;;;;;;13.80;12.40;;;;;;;;;;5043628;28;20500;-77
2023/02/15 13:23:36;;;;;;;14.00;11.93;;;;;;;;;;5045505;28;20776;-78
2023/02/15 13:26:05;;;;;;;21.43;12.87;;;;;;;;;;5041448;28;20468;-76
2023/02/15 13:28:43;;;;;;;14.87;12.40;;;;;;;;;;5052853;28;20426;-76
2023/02/15 13:31:16;;;;;;;13.30;11.93;;;;;;;;;;5017870;28;20567;-75
2023/02/15 13:33:45;;;;;;;13.37;11.73;;;;;;;;;;5043522;28;20448;-77
2023/02/15 13:36:23;;;;;;;15.90;12.23;;;;;;;;;;5054683;28;21047;-75
2023/02/15 13:39:08;;;;;;;12.67;11.30;;;;;;;;;;5038560;28;20802;-75
2023/02/15 13:41:38;;;;;;;15.77;12.73;;;;;;;;;;5039478;28;20424;-76
2023/02/15 13:44:15;;;;;;;19.30;11.90;;;;;;;;;;5016477;28;20499;-76
2023/02/15 13:46:41;;;;;;;13.87;10.50;;;;;;;;;;5022004;28;20457;-76
2023/02/15 13:49:22;;;;;;;13.13;11.73;;;;;;;;;;5040807;28;20446;-77
2023/02/15 13:51:48;;;;;;;15.67;11.47;;;;;;;;;;5044356;28;20797;-76
2023/02/15 13:54:14;;;;;;;13.07;11.23;;;;;;;;;;5047301;28;20446;-76
2023/02/15 13:57:00;;;;;;;13.90;11.80;;;;;;;;;;5038825;28;20426;-77
2023/02/15 13:59:45;;;;;;;15.80;11.30;;;;;;;;;;5026259;28;20430;-75
2023/02/15 14:02:11;;;;;;;14.10;10.40;;;;;;;;;;5023722;28;20433;-78
2023/02/15 14:04:51;;;;;;;14.73;11.60;;;;;;;;;;5051586;28;20422;-76
2023/02/15 14:07:23;;;;;;;16.40;12.50;;;;;;;;;;5038009;28;20445;-75
2023/02/15 14:09:57;;;;;;;17.40;12.40;;;;;;;;;;5041368;28;20452;-76
2023/02/15 14:12:23;;;;;;;14.47;10.63;;;;;;;;;;5040695;28;20428;-75
2023/02/15 14:14:55;;;;;;;16.27;11.97;;;;;;;;;;5044295;28;20453;-77
2023/02/15 14:17:25;;;;;;;12.60;11.33;;;;;;;;;;5048804;28;20473;-77
2023/02/15 14:19:54;;;;;;;16.23;12.47;;;;;;;;;;5044408;28;20406;-76
2023/02/15 14:22:37;;;;;;;12.80;11.50;;;;;;;;;;5047423;28;21009;-76
2023/02/15 14:25:06;;;;;;;12.67;11.27;;;;;;;;;;5043748;28;20568;-75
2023/02/15 14:27:42;;;;;;;12.43;10.50;;;;;;;;;;5032325;28;20477;-77
2023/02/15 14:30:19;;;;;;;11.50;10.20;;;;;;;;;;5026099;28;20482;-76
2023/02/15 14:32:47;;;;;;;17.63;12.47;;;;;;;;;;5037612;28;20440;-75
2023/02/15 14:35:17;;;;;;;15.03;12.00;;;;;;;;;;5041812;28;20433;-75
2023/02/15 14:37:49;;;;;;;16.60;13.37;;;;;;;;;;5040139;28;20512;-75
2023/02/15 14:43:16;;;;;;;14.00;11.73;;;;;;;;;;5041898;28;20800;-76
2023/02/15 14:45:48;;;;;;;14.67;12.10;;;;;;;;;;5017173;28;20567;-74
2023/02/15 14:48:35;;;;;;;14.00;11.60;;;;;;;;;;5035286;28;20446;-76
2023/02/15 14:51:01;;;;;;;16.03;11.43;;;;;;;;;;5027923;28;20465;-76
2023/02/15 14:53:30;;;;;;;12.57;11.23;;;;;;;;;;5036882;28;20796;-75
2023/02/15 14:56:06;;;;;;;15.50;10.50;;;;;;;;;;5021318;28;20462;-75
2023/02/15 14:58:32;;;;;;;16.40;12.20;;;;;;;;;;5039587;28;20436;-76
2023/02/15 15:01:10;;;;;;;13.37;11.33;;;;;;;;;;5045261;28;20450;-76
2023/02/15 15:03:37;;;;;;;18.17;12.20;;;;;;;;;;5046168;28;20429;-77